Time;durP1;ratioP1;P1;durP2;ratioP2;P2;SDS_P1;SDS_P2;PMS_P1;PMS_P2;Temp;Humidity;BMP_temperature;BMP_pressure;BME280_temperature;BME280_humidity;BME280_pressure;Samples;Min_cycle;Max_cycle;Signal;HPM_P1;HPM_P2
2022/06/21 00:00:20;;;;;;;2.63;1.33;;;;;;;;;;5016030;28;20035;-70
2022/06/21 00:02:47;;;;;;;4.10;1.50;;;;;;;;;;5016448;28;20026;-70
2022/06/21 00:05:17;;;;;;;2.85;1.60;;;;;;;;;;5015875;28;20088;-70
2022/06/21 00:07:43;;;;;;;5.13;1.50;;;;;;;;;;5016461;28;20030;-71
2022/06/21 00:10:15;;;;;;;4.50;1.75;;;;;;;;;;5015915;28;20109;-70
2022/06/21 00:12:40;;;;;;;3.03;1.50;;;;;;;;;;5016092;28;20026;-70
2022/06/21 00:15:06;;;;;;;2.97;1.42;;;;;;;;;;5015265;28;20113;-69
2022/06/21 00:17:31;;;;;;;2.70;1.52;;;;;;;;;;5015805;28;20026;-70
2022/06/21 00:19:56;;;;;;;3.88;1.63;;;;;;;;;;5015746;28;20037;-70
2022/06/21 00:22:26;;;;;;;2.97;1.67;;;;;;;;;;5015863;28;20022;-71
2022/06/21 00:24:51;;;;;;;5.43;1.52;;;;;;;;;;5015756;28;20034;-70
2022/06/21 00:27:19;;;;;;;4.53;1.58;;;;;;;;;;5015642;28;20432;-69
2022/06/21 00:29:45;;;;;;;4.65;1.70;;;;;;;;;;5014239;28;20033;-69
2022/06/21 00:32:14;;;;;;;4.95;1.83;;;;;;;;;;5015194;28;20030;-69
2022/06/21 00:34:40;;;;;;;4.65;1.58;;;;;;;;;;5014115;28;20040;-70
2022/06/21 00:37:12;;;;;;;4.78;1.77;;;;;;;;;;5015580;28;20038;-70
2022/06/21 00:39:37;;;;;;;6.40;1.70;;;;;;;;;;5015592;28;20026;-69
2022/06/21 00:42:16;;;;;;;4.97;1.80;;;;;;;;;;5015270;28;20088;-70
2022/06/21 00:45:14;;;;;;;2.63;1.48;;;;;;;;;;5015267;28;20038;-70
2022/06/21 00:47:45;;;;;;;5.45;1.83;;;;;;;;;;5003900;28;20404;-70
2022/06/21 00:50:25;;;;;;;3.00;1.63;;;;;;;;;;5014855;28;20045;-71
2022/06/21 00:53:18;;;;;;;6.15;1.60;;;;;;;;;;5014386;28;20057;-69
2022/06/21 00:55:51;;;;;;;4.35;1.60;;;;;;;;;;5015112;28;20073;-70
2022/06/21 00:58:18;;;;;;;8.37;2.17;;;;;;;;;;5015502;28;20066;-70
2022/06/21 01:00:53;;;;;;;4.18;1.70;;;;;;;;;;5015080;28;20263;-70
2022/06/21 01:03:22;;;;;;;1.70;1.58;;;;;;;;;;5015050;28;20084;-68
2022/06/21 01:05:49;;;;;;;5.50;2.30;;;;;;;;;;5015113;28;20021;-71
2022/06/21 01:08:19;;;;;;;5.63;1.75;;;;;;;;;;5013959;28;20487;-70
2022/06/21 01:10:47;;;;;;;2.67;1.55;;;;;;;;;;5014990;28;20029;-70
2022/06/21 01:13:29;;;;;;;6.60;1.77;;;;;;;;;;5015042;28;20033;-70
2022/06/21 01:15:56;;;;;;;4.60;1.58;;;;;;;;;;5016123;28;20026;-75
2022/06/21 01:18:23;;;;;;;6.90;1.80;;;;;;;;;;5016656;28;20494;-75
2022/06/21 01:20:51;;;;;;;5.75;1.83;;;;;;;;;;5017130;28;20026;-77
2022/06/21 01:23:32;;;;;;;5.97;1.77;;;;;;;;;;5017681;28;20156;-76
2022/06/21 01:26:35;;;;;;;3.70;1.38;;;;;;;;;;5018418;28;20442;-76
2022/06/21 01:29:03;;;;;;;5.30;1.33;;;;;;;;;;5017040;28;20049;-76
2022/06/21 01:31:30;;;;;;;7.50;1.70;;;;;;;;;;5018307;28;20026;-75
2022/06/21 01:33:55;;;;;;;4.53;1.60;;;;;;;;;;5018338;28;20026;-76
2022/06/21 01:36:28;;;;;;;6.53;1.80;;;;;;;;;;5017042;28;20071;-76
2022/06/21 01:39:08;;;;;;;4.60;1.60;;;;;;;;;;5017799;28;20048;-77
2022/06/21 01:41:41;;;;;;;5.78;1.70;;;;;;;;;;5018770;28;20034;-76
2022/06/21 01:44:16;;;;;;;6.90;1.92;;;;;;;;;;5019051;28;20497;-77
2022/06/21 01:46:42;;;;;;;5.13;1.75;;;;;;;;;;5017590;28;20033;-77
2022/06/21 01:49:12;;;;;;;5.88;1.63;;;;;;;;;;5017272;28;20089;-75
2022/06/21 01:51:47;;;;;;;4.35;1.70;;;;;;;;;;5019588;28;20025;-77
2022/06/21 01:54:17;;;;;;;3.40;1.80;;;;;;;;;;5018956;28;20502;-76
2022/06/21 01:56:45;;;;;;;5.40;1.67;;;;;;;;;;5019729;28;20029;-77
2022/06/21 01:59:16;;;;;;;3.72;1.90;;;;;;;;;;5017807;28;20021;-75
2022/06/21 02:01:57;;;;;;;4.80;1.88;;;;;;;;;;5021893;28;20080;-76
2022/06/21 02:04:25;;;;;;;4.75;1.92;;;;;;;;;;5023469;28;20077;-76
2022/06/21 02:06:52;;;;;;;10.52;1.70;;;;;;;;;;5023150;28;20030;-75
2022/06/21 02:09:29;;;;;;;6.10;1.77;;;;;;;;;;5023224;28;20037;-76
2022/06/21 02:12:02;;;;;;;3.38;1.70;;;;;;;;;;5022472;28;20057;-76
2022/06/21 02:14:33;;;;;;;6.95;1.85;;;;;;;;;;5021752;28;20057;-75
2022/06/21 02:17:16;;;;;;;4.45;1.60;;;;;;;;;;5023720;28;20038;-75
2022/06/21 02:19:52;;;;;;;5.20;1.80;;;;;;;;;;5023258;28;20088;-76
2022/06/21 02:22:24;;;;;;;2.85;1.65;;;;;;;;;;5024646;28;20036;-75
2022/06/21 02:24:50;;;;;;;4.95;1.92;;;;;;;;;;5023073;28;20430;-74
2022/06/21 02:27:18;;;;;;;5.43;1.83;;;;;;;;;;5023755;28;20399;-76
2022/06/21 02:29:48;;;;;;;4.50;1.88;;;;;;;;;;5023944;28;20028;-76
2022/06/21 02:32:25;;;;;;;3.88;2.05;;;;;;;;;;5023694;28;20026;-76
2022/06/21 02:34:54;;;;;;;5.30;1.70;;;;;;;;;;5024504;28;20117;-76
2022/06/21 02:37:20;;;;;;;3.50;2.03;;;;;;;;;;5024580;28;20030;-77
2022/06/21 02:39:46;;;;;;;5.05;1.88;;;;;;;;;;5025238;28;20030;-76
2022/06/21 02:42:19;;;;;;;4.63;1.85;;;;;;;;;;5026373;28;20033;-76
2022/06/21 03:22:02;;;;;;;2.63;1.55;;;;;;;;;;4940179;29;20528;-77
2022/06/21 03:25:15;;;;;;;8.90;1.80;;;;;;;;;;4932915;28;20102;-76
2022/06/21 03:32:05;;;;;;;5.68;1.60;;;;;;;;;;4975280;28;20099;-76
2022/06/21 03:38:01;;;;;;;5.88;2.00;;;;;;;;;;4980135;28;20538;-75
2022/06/21 03:44:26;;;;;;;;;;;;;;;;;;;;;
2022/06/21 03:48:03;;;;;;;;;;;;;;;;;;;;;
2022/06/21 03:50:53;;;;;;;;;;;;;;;;;;;;;
2022/06/21 03:53:44;;;;;;;5.30;1.75;;;;;;;;;;4979694;28;20535;-75
2022/06/21 03:56:24;;;;;;;5.30;1.70;;;;;;;;;;4979652;28;20030;-76
2022/06/21 03:59:27;;;;;;;6.32;1.73;;;;;;;;;;4979832;28;20042;-75
2022/06/21 04:02:04;;;;;;;5.45;1.60;;;;;;;;;;4980059;28;20033;-75
2022/06/21 04:04:55;;;;;;;4.60;1.65;;;;;;;;;;4979821;28;20031;-77
2022/06/21 04:07:56;;;;;;;6.18;1.60;;;;;;;;;;4978031;28;20039;-75
2022/06/21 04:10:33;;;;;;;4.78;1.65;;;;;;;;;;4970477;28;20053;-74
2022/06/21 04:13:05;;;;;;;2.65;1.80;;;;;;;;;;4978032;28;20035;-76
2022/06/21 04:15:58;;;;;;;4.80;1.80;;;;;;;;;;4979562;28;20425;-77
2022/06/21 04:18:30;;;;;;;8.50;1.85;;;;;;;;;;4979720;28;20143;-76
2022/06/21 04:21:15;;;;;;;6.03;2.03;;;;;;;;;;4978502;28;20030;-75
2022/06/21 04:23:43;;;;;;;;;;;;;;;;;;4979244;28;20485;-75
2022/06/21 04:26:29;;;;;;;4.63;1.75;;;;;;;;;;4978398;28;19917;-75
2022/06/21 04:29:07;;;;;;;5.75;1.63;;;;;;;;;;4978528;28;20157;-76
2022/06/21 04:31:44;;;;;;;7.50;1.75;;;;;;;;;;4980072;28;20037;-74
2022/06/21 04:37:29;;;;;;;3.92;1.75;;;;;;;;;;4977714;28;20054;-75
2022/06/21 04:43:45;;;;;;;7.65;1.83;;;;;;;;;;4920254;29;20091;-75
2022/06/21 04:46:18;;;;;;;6.93;1.80;;;;;;;;;;4948586;28;20042;-76
2022/06/21 04:49:44;;;;;;;5.03;1.70;;;;;;;;;;4977902;28;20469;-76
2022/06/21 04:52:31;;;;;;;5.53;1.77;;;;;;;;;;4958451;29;20487;-76
2022/06/21 04:54:57;;;;;;;5.72;1.90;;;;;;;;;;4978959;28;20082;-75
2022/06/21 04:57:26;;;;;;;9.15;1.88;;;;;;;;;;4977330;28;20031;-75
2022/06/21 04:59:58;;;;;;;6.47;2.00;;;;;;;;;;4977451;28;20018;-75
2022/06/21 05:02:30;;;;;;;4.85;1.67;;;;;;;;;;4976646;28;20178;-76
2022/06/21 05:05:12;;;;;;;8.35;1.85;;;;;;;;;;4976234;28;20035;-76
2022/06/21 05:07:44;;;;;;;7.50;1.90;;;;;;;;;;4976909;28;20106;-75
2022/06/21 05:10:16;;;;;;;7.20;1.80;;;;;;;;;;4978022;28;20034;-76
2022/06/21 05:12:43;;;;;;;7.32;1.95;;;;;;;;;;4976546;28;20047;-76
2022/06/21 05:15:21;;;;;;;4.32;1.90;;;;;;;;;;4978037;28;20038;-76
2022/06/21 05:17:54;;;;;;;5.18;1.80;;;;;;;;;;4977933;28;20043;-75
2022/06/21 05:20:23;;;;;;;6.90;1.92;;;;;;;;;;4976655;28;20503;-76
2022/06/21 05:22:52;;;;;;;6.15;1.60;;;;;;;;;;4977295;28;20154;-76
2022/06/21 05:25:27;;;;;;;8.55;1.90;;;;;;;;;;4978085;28;20117;-76
2022/06/21 05:28:04;;;;;;;4.82;2.00;;;;;;;;;;4978122;28;20030;-76
2022/06/21 05:31:00;;;;;;;6.55;1.60;;;;;;;;;;4978941;28;20030;-75
2022/06/21 05:33:34;;;;;;;7.50;1.70;;;;;;;;;;4978059;28;20053;-75
2022/06/21 05:36:02;;;;;;;4.03;1.75;;;;;;;;;;5004704;28;20037;-76
2022/06/21 05:38:31;;;;;;;4.70;1.73;;;;;;;;;;5021348;28;20049;-75
2022/06/21 05:41:05;;;;;;;8.23;2.00;;;;;;;;;;5020745;28;20105;-76
2022/06/21 05:43:42;;;;;;;6.32;1.80;;;;;;;;;;5019992;28;20034;-76
2022/06/21 05:46:15;;;;;;;7.63;1.70;;;;;;;;;;5020593;28;20026;-76
2022/06/21 05:48:41;;;;;;;8.90;1.98;;;;;;;;;;5020118;28;20026;-76
2022/06/21 05:51:24;;;;;;;6.20;1.80;;;;;;;;;;5019779;28;20030;-76
2022/06/21 05:53:53;;;;;;;6.72;1.90;;;;;;;;;;5019884;28;20498;-76
2022/06/21 05:56:21;;;;;;;9.32;1.85;;;;;;;;;;5019498;28;20022;-76
2022/06/21 05:59:00;;;;;;;4.53;1.88;;;;;;;;;;5019989;28;20110;-76
2022/06/21 06:01:33;;;;;;;3.45;1.50;;;;;;;;;;5002248;28;20419;-76
2022/06/21 06:04:07;;;;;;;4.32;1.73;;;;;;;;;;5002281;28;20022;-75
2022/06/21 06:06:36;;;;;;;4.82;1.73;;;;;;;;;;5020258;28;20057;-75
2022/06/21 06:09:11;;;;;;;8.73;1.73;;;;;;;;;;5019630;28;20021;-76
2022/06/21 06:11:57;;;;;;;9.48;2.17;;;;;;;;;;5019392;28;20034;-74
2022/06/21 06:14:30;;;;;;;7.25;1.83;;;;;;;;;;5020383;28;20526;-75
2022/06/21 06:16:59;;;;;;;4.93;1.80;;;;;;;;;;5021211;28;20426;-73
2022/06/21 06:19:35;;;;;;;4.93;1.63;;;;;;;;;;5020886;28;20026;-76
2022/06/21 06:22:06;;;;;;;5.18;1.70;;;;;;;;;;5021291;28;20085;-76
2022/06/21 06:24:40;;;;;;;4.70;1.50;;;;;;;;;;5020642;28;20030;-76
2022/06/21 06:27:22;;;;;;;4.90;1.70;;;;;;;;;;5003230;28;20030;-75
2022/06/21 06:29:51;;;;;;;4.80;1.55;;;;;;;;;;5020880;28;20090;-75
2022/06/21 06:32:25;;;;;;;6.28;1.55;;;;;;;;;;5020100;28;20030;-76
2022/06/21 06:37:37;;;;;;;4.13;1.48;;;;;;;;;;3340428;26;20507;-76
2022/06/21 06:40:05;;;;;;;4.80;1.42;;;;;;;;;;5040053;28;20017;-76
2022/06/21 06:42:37;;;;;;;7.72;2.20;;;;;;;;;;5040462;28;20034;-76
2022/06/21 06:45:11;;;;;;;4.18;1.58;;;;;;;;;;5026394;28;20021;-76
2022/06/21 06:47:40;;;;;;;5.03;1.50;;;;;;;;;;5018541;28;20419;-75
2022/06/21 06:50:27;;;;;;;6.75;1.67;;;;;;;;;;5019852;28;20399;-75
2022/06/21 06:53:01;;;;;;;5.47;1.48;;;;;;;;;;5019763;28;20029;-76
2022/06/21 06:55:32;;;;;;;;;;;;;;;;;;5019844;28;20380;-75
2022/06/21 06:58:06;;;;;;;4.25;1.58;;;;;;;;;;5018376;28;20286;-75
2022/06/21 07:00:40;;;;;;;6.82;1.50;;;;;;;;;;5001869;28;20022;-76
2022/06/21 07:03:12;;;;;;;6.85;1.80;;;;;;;;;;5018848;28;20034;-75
2022/06/21 07:05:46;;;;;;;5.47;1.50;;;;;;;;;;5018737;28;20545;-76
2022/06/21 07:08:28;;;;;;;3.50;1.20;;;;;;;;;;5018623;28;20033;-75
2022/06/21 07:10:57;;;;;;;5.18;1.58;;;;;;;;;;5018286;28;20033;-75
2022/06/21 07:13:23;;;;;;;6.47;1.65;;;;;;;;;;5018575;28;20482;-75
2022/06/21 07:15:51;;;;;;;5.65;1.55;;;;;;;;;;5018928;28;20087;-75
2022/06/21 07:18:27;;;;;;;3.55;1.45;;;;;;;;;;5018888;28;20026;-76
2022/06/21 07:20:53;;;;;;;4.03;1.45;;;;;;;;;;5018787;28;20036;-76
2022/06/21 07:23:22;;;;;;;9.75;1.60;;;;;;;;;;5018574;28;20026;-76
2022/06/21 07:25:56;;;;;;;4.15;1.45;;;;;;;;;;5018819;28;20034;-75
2022/06/21 07:28:33;;;;;;;6.38;1.50;;;;;;;;;;5019819;28;20053;-76
2022/06/21 07:31:05;;;;;;;3.75;1.30;;;;;;;;;;5019502;28;20549;-75
2022/06/21 07:33:36;;;;;;;3.38;1.30;;;;;;;;;;5019418;28;20030;-76
2022/06/21 07:36:12;;;;;;;5.07;1.60;;;;;;;;;;5000814;28;20387;-76
2022/06/21 07:38:40;;;;;;;4.43;1.45;;;;;;;;;;5019090;28;20037;-77
2022/06/21 07:41:12;;;;;;;4.35;1.17;;;;;;;;;;5018838;28;20079;-75
2022/06/21 07:43:41;;;;;;;3.03;1.40;;;;;;;;;;5018866;28;20026;-76
2022/06/21 07:46:15;;;;;;;4.50;1.38;;;;;;;;;;5018643;28;20510;-76
2022/06/21 07:48:44;;;;;;;2.35;1.30;;;;;;;;;;5019217;28;20034;-76
2022/06/21 07:51:18;;;;;;;4.07;1.40;;;;;;;;;;5019420;28;20033;-75
2022/06/21 07:53:49;;;;;;;4.47;1.25;;;;;;;;;;5000674;28;20057;-75
2022/06/21 07:56:23;;;;;;;8.95;1.40;;;;;;;;;;5002073;28;20026;-76
2022/06/21 07:58:58;;;;;;;5.38;1.73;;;;;;;;;;5018729;28;20022;-75
2022/06/21 08:07:27;;;;;;;;;;;;;;;;;;5018594;28;20114;-75
2022/06/21 08:10:01;;;;;;;6.93;1.50;;;;;;;;;;5017845;28;19917;-75
2022/06/21 08:12:27;;;;;;;5.55;1.52;;;;;;;;;;5018125;28;20021;-75
2022/06/21 08:14:53;;;;;;;3.75;1.30;;;;;;;;;;5017507;28;20037;-75
2022/06/21 08:17:30;;;;;;;4.22;1.25;;;;;;;;;;5017968;28;20475;-75
2022/06/21 08:20:05;;;;;;;7.15;1.83;;;;;;;;;;5017749;28;20048;-76
2022/06/21 08:22:52;;;;;;;6.55;2.05;;;;;;;;;;5017583;28;20409;-76
2022/06/21 08:25:30;;;;;;;4.43;1.40;;;;;;;;;;5016610;28;20029;-77
2022/06/21 08:28:04;;;;;;;1.80;1.10;;;;;;;;;;5016614;28;20022;-76
2022/06/21 08:31:21;;;;;;;4.43;1.30;;;;;;;;;;5017281;28;20125;-75
2022/06/21 08:34:06;;;;;;;2.83;1.23;;;;;;;;;;4960139;28;20030;-75
2022/06/21 08:36:42;;;;;;;4.25;1.40;;;;;;;;;;5016859;28;20033;-73
2022/06/21 08:39:25;;;;;;;4.00;1.50;;;;;;;;;;5017113;28;20041;-74
2022/06/21 08:42:07;;;;;;;4.20;1.40;;;;;;;;;;4999651;28;20025;-73
2022/06/21 08:48:13;;;;;;;5.22;1.50;;;;;;;;;;5016478;28;20033;-75
2022/06/21 08:50:57;;;;;;;4.55;1.27;;;;;;;;;;4998963;28;20026;-75
2022/06/21 08:53:23;;;;;;;;;;;;;;;;;;5017315;28;20029;-75
2022/06/21 08:56:05;;;;;;;3.27;1.10;;;;;;;;;;5016940;28;19909;-75
2022/06/21 08:58:51;;;;;;;3.58;1.40;;;;;;;;;;4999234;28;20026;-75
2022/06/21 09:01:32;;;;;;;3.97;1.40;;;;;;;;;;5016840;28;20077;-75
2022/06/21 09:04:21;;;;;;;6.13;1.42;;;;;;;;;;5016028;28;20025;-75
2022/06/21 09:07:11;;;;;;;3.45;1.20;;;;;;;;;;5017621;28;20022;-75
2022/06/21 09:10:14;;;;;;;4.18;1.50;;;;;;;;;;5016753;28;20026;-76
2022/06/21 09:13:07;;;;;;;3.50;1.33;;;;;;;;;;5017092;28;20121;-74
2022/06/21 09:15:54;;;;;;;3.40;1.20;;;;;;;;;;4998721;28;20033;-75
2022/06/21 09:18:41;;;;;;;3.25;1.27;;;;;;;;;;5016209;28;20029;-75
2022/06/21 09:21:35;;;;;;;5.05;1.42;;;;;;;;;;5017124;28;20102;-76
2022/06/21 09:24:26;;;;;;;;;;;;;;;;;;5017058;28;20149;-74
2022/06/21 09:27:05;;;;;;;3.13;1.23;;;;;;;;;;5012296;28;19963;-75
2022/06/21 09:29:50;;;;;;;6.03;1.77;;;;;;;;;;5016274;28;20492;-76
2022/06/21 09:32:34;;;;;;;4.40;1.30;;;;;;;;;;5017697;28;20025;-77
2022/06/21 09:35:25;;;;;;;5.80;1.73;;;;;;;;;;5000151;28;20022;-75
2022/06/21 09:38:22;;;;;;;3.67;1.13;;;;;;;;;;4998136;28;20488;-76
2022/06/21 09:41:03;;;;;;;3.60;1.30;;;;;;;;;;5017791;28;20065;-76
2022/06/21 09:43:48;;;;;;;3.90;1.40;;;;;;;;;;5017033;28;20022;-76
2022/06/21 09:46:33;;;;;;;3.60;1.65;;;;;;;;;;4998885;28;20030;-75
2022/06/21 09:49:18;;;;;;;5.03;1.60;;;;;;;;;;5015674;28;20030;-75
2022/06/21 09:52:15;;;;;;;3.80;1.50;;;;;;;;;;5016304;28;20103;-76
2022/06/21 09:54:59;;;;;;;4.10;1.40;;;;;;;;;;5016235;28;20026;-75
2022/06/21 09:57:32;;;;;;;3.38;1.30;;;;;;;;;;5016611;28;20053;-75
2022/06/21 10:00:09;;;;;;;4.32;1.40;;;;;;;;;;4998104;28;20076;-76
2022/06/21 10:03:06;;;;;;;6.07;1.58;;;;;;;;;;4998723;28;20022;-74
2022/06/21 10:05:44;;;;;;;4.10;1.58;;;;;;;;;;5017050;28;20080;-76
2022/06/21 10:08:41;;;;;;;2.47;1.20;;;;;;;;;;4998196;28;20060;-76
2022/06/21 10:11:45;;;;;;;3.92;1.42;;;;;;;;;;5015520;28;20109;-74
2022/06/21 10:14:24;;;;;;;1.98;1.30;;;;;;;;;;5015150;28;20026;-75
2022/06/21 10:17:33;;;;;;;6.47;1.92;;;;;;;;;;5015209;28;20112;-76
2022/06/21 10:20:09;;;;;;;3.15;1.40;;;;;;;;;;5014619;28;20029;-74
2022/06/21 10:22:55;;;;;;;6.25;1.45;;;;;;;;;;4998624;28;20075;-76
2022/06/21 10:25:54;;;;;;;3.25;1.48;;;;;;;;;;5017880;28;20025;-74
2022/06/21 10:29:01;;;;;;;4.57;1.40;;;;;;;;;;5017770;28;20098;-75
2022/06/21 10:31:40;;;;;;;4.00;1.50;;;;;;;;;;5018934;28;20022;-76
2022/06/21 10:34:08;;;;;;;4.60;1.50;;;;;;;;;;5018177;28;20042;-73
2022/06/21 10:36:59;;;;;;;2.85;1.30;;;;;;;;;;5018061;28;20030;-76
2022/06/21 10:39:45;;;;;;;7.28;1.60;;;;;;;;;;5018240;28;20061;-76
2022/06/21 10:45:11;;;;;;;4.50;1.40;;;;;;;;;;5018637;28;20048;-75
2022/06/21 10:48:07;;;;;;;5.93;1.60;;;;;;;;;;5000336;28;20022;-76
2022/06/21 10:50:59;;;;;;;4.53;1.52;;;;;;;;;;5017821;28;20088;-76
2022/06/21 10:54:08;;;;;;;5.55;1.80;;;;;;;;;;5000208;28;20022;-76
2022/06/21 11:02:39;;;;;;;2.83;1.35;;;;;;;;;;5018218;28;20430;-74
2022/06/21 11:05:14;;;;;;;3.10;1.27;;;;;;;;;;5018013;28;20101;-75
2022/06/21 11:07:47;;;;;;;4.03;1.30;;;;;;;;;;5018746;28;20065;-76
2022/06/21 11:10:19;;;;;;;4.68;1.48;;;;;;;;;;5020052;28;20061;-76
2022/06/21 11:12:53;;;;;;;4.50;1.48;;;;;;;;;;5018714;28;20022;-75
2022/06/21 11:15:39;;;;;;;4.30;1.40;;;;;;;;;;5018293;28;20030;-76
2022/06/21 11:18:21;;;;;;;5.32;1.45;;;;;;;;;;5017674;28;20053;-76
2022/06/21 11:21:16;;;;;;;4.45;1.60;;;;;;;;;;5016650;28;20441;-76
2022/06/21 11:24:19;;;;;;;9.07;1.45;;;;;;;;;;5016701;28;20466;-76
2022/06/21 11:27:08;;;;;;;2.70;1.40;;;;;;;;;;5016531;28;20033;-75
2022/06/21 11:30:00;;;;;;;2.83;1.20;;;;;;;;;;4999024;28;20052;-75
2022/06/21 11:32:33;;;;;;;2.97;1.20;;;;;;;;;;4998957;28;20117;-75
2022/06/21 11:35:26;;;;;;;4.15;1.40;;;;;;;;;;5016281;28;20113;-75
2022/06/21 11:38:15;;;;;;;4.20;1.33;;;;;;;;;;5016206;28;20029;-75
2022/06/21 11:41:00;;;;;;;6.03;1.50;;;;;;;;;;5017262;28;20076;-76
2022/06/21 11:43:46;;;;;;;6.28;1.50;;;;;;;;;;5016465;28;20080;-75
2022/06/21 11:46:21;;;;;;;4.32;1.23;;;;;;;;;;5018164;28;20084;-75
2022/06/21 11:49:19;;;;;;;4.22;1.40;;;;;;;;;;5016206;28;20494;-75
2022/06/21 11:52:07;;;;;;;3.90;1.13;;;;;;;;;;5014419;28;20462;-75
2022/06/21 11:54:47;;;;;;;3.45;1.15;;;;;;;;;;5017829;28;20104;-76
2022/06/21 11:57:32;;;;;;;3.60;1.38;;;;;;;;;;5016858;28;20108;-76
2022/06/21 12:00:07;;;;;;;3.72;1.35;;;;;;;;;;4999366;28;20410;-76
2022/06/21 12:02:54;;;;;;;5.13;1.20;;;;;;;;;;5015809;28;20483;-76
2022/06/21 12:05:53;;;;;;;5.20;1.25;;;;;;;;;;5016600;28;20034;-76
2022/06/21 12:08:30;;;;;;;2.70;1.10;;;;;;;;;;5013182;28;20522;-77
2022/06/21 12:11:08;;;;;;;4.25;1.08;;;;;;;;;;5016083;28;20034;-75
2022/06/21 12:13:48;;;;;;;2.85;1.20;;;;;;;;;;5017414;28;20037;-76
2022/06/21 12:16:49;;;;;;;10.43;1.30;;;;;;;;;;5016604;28;20486;-76
2022/06/21 12:19:19;;;;;;;2.10;1.25;;;;;;;;;;4999173;28;20133;-77
2022/06/21 12:21:56;;;;;;;3.90;1.38;;;;;;;;;;5015701;28;20036;-76
2022/06/21 12:24:24;;;;;;;2.65;1.23;;;;;;;;;;5016117;28;20076;-76
2022/06/21 12:26:50;;;;;;;4.20;1.23;;;;;;;;;;4998629;28;20040;-75
2022/06/21 12:29:19;;;;;;;4.47;1.20;;;;;;;;;;4999335;28;20022;-76
2022/06/21 12:31:57;;;;;;;3.45;1.20;;;;;;;;;;5016370;28;20085;-75
2022/06/21 12:34:28;;;;;;;5.00;1.20;;;;;;;;;;4999686;28;20076;-75
2022/06/21 12:37:08;;;;;;;4.47;1.23;;;;;;;;;;5016844;28;20045;-76
2022/06/21 12:39:46;;;;;;;3.17;1.30;;;;;;;;;;5015696;28;20112;-76
2022/06/21 12:42:38;;;;;;;4.57;1.08;;;;;;;;;;4998083;28;20029;-75
2022/06/21 12:45:09;;;;;;;4.60;1.35;;;;;;;;;;5015345;28;20511;-75
2022/06/21 12:47:49;;;;;;;3.67;1.13;;;;;;;;;;5017264;28;20480;-76
2022/06/21 12:50:31;;;;;;;4.47;1.40;;;;;;;;;;4997682;28;20018;-77
2022/06/21 12:53:09;;;;;;;2.38;1.27;;;;;;;;;;5016458;28;20064;-77
2022/06/21 12:55:55;;;;;;;3.33;1.60;;;;;;;;;;5016869;28;20545;-76
2022/06/21 12:58:35;;;;;;;1.90;1.15;;;;;;;;;;5016593;28;20475;-75
2022/06/21 13:01:09;;;;;;;2.55;1.20;;;;;;;;;;5016621;28;20084;-74
2022/06/21 13:03:45;;;;;;;4.60;1.23;;;;;;;;;;5015289;28;20036;-75
2022/06/21 13:06:38;;;;;;;5.10;1.23;;;;;;;;;;5016739;28;20021;-75
2022/06/21 13:09:22;;;;;;;4.53;1.20;;;;;;;;;;4983373;28;20545;-75
2022/06/21 13:11:53;;;;;;;;;;;;;;;;;;5017601;28;20040;-75
2022/06/21 13:14:34;;;;;;;2.13;1.10;;;;;;;;;;5016689;28;20393;-76
2022/06/21 13:17:31;;;;;;;3.78;1.15;;;;;;;;;;5021434;28;20022;-75
2022/06/21 13:20:22;;;;;;;5.22;1.30;;;;;;;;;;5018934;28;20104;-75
2022/06/21 13:23:26;;;;;;;6.28;1.20;;;;;;;;;;5019634;28;20045;-76
2022/06/21 13:26:10;;;;;;;4.90;1.10;;;;;;;;;;5023413;28;20099;-74
2022/06/21 13:28:54;;;;;;;2.70;1.02;;;;;;;;;;5017540;28;20057;-75
2022/06/21 13:31:49;;;;;;;4.70;1.20;;;;;;;;;;5000759;28;20029;-75
2022/06/21 13:34:32;;;;;;;3.63;1.10;;;;;;;;;;5022645;28;20037;-75
2022/06/21 13:37:07;;;;;;;4.30;1.30;;;;;;;;;;5021490;28;20025;-75
2022/06/21 13:39:41;;;;;;;3.22;1.13;;;;;;;;;;5019914;28;20050;-75
2022/06/21 13:42:38;;;;;;;7.72;1.30;;;;;;;;;;5003438;28;20467;-76
2022/06/21 13:45:14;;;;;;;4.32;1.30;;;;;;;;;;5003865;28;20034;-76
2022/06/21 13:48:05;;;;;;;5.05;1.35;;;;;;;;;;5003053;28;20026;-76
2022/06/21 13:50:44;;;;;;;3.50;1.33;;;;;;;;;;5005204;28;20026;-75
2022/06/21 13:53:26;;;;;;;2.60;1.30;;;;;;;;;;5021980;28;20060;-75
2022/06/21 13:55:58;;;;;;;2.35;1.10;;;;;;;;;;5020637;28;20030;-72
2022/06/21 13:58:40;;;;;;;3.70;1.17;;;;;;;;;;5025679;28;20045;-77
2022/06/21 14:01:09;;;;;;;3.05;1.20;;;;;;;;;;5025084;28;20036;-77
2022/06/21 14:03:53;;;;;;;3.00;1.02;;;;;;;;;;5023467;28;20033;-76
2022/06/21 14:06:25;;;;;;;2.40;1.25;;;;;;;;;;5006263;28;20029;-75
2022/06/21 14:09:03;;;;;;;3.92;1.20;;;;;;;;;;5018213;28;20120;-77
2022/06/21 14:11:49;;;;;;;1.25;1.10;;;;;;;;;;5017278;28;20048;-75
2022/06/21 14:14:42;;;;;;;1.60;1.10;;;;;;;;;;5018110;28;20385;-74
2022/06/21 14:17:37;;;;;;;4.03;1.20;;;;;;;;;;5018315;28;20021;-76
2022/06/21 14:20:43;;;;;;;4.53;1.17;;;;;;;;;;5018195;28;20109;-76
2022/06/21 14:23:22;;;;;;;3.22;1.17;;;;;;;;;;5018334;28;20076;-76
2022/06/21 14:25:54;;;;;;;1.73;1.02;;;;;;;;;;5017532;28;20026;-76
2022/06/21 14:28:40;;;;;;;4.45;1.30;;;;;;;;;;5018131;28;20066;-76
2022/06/21 14:31:19;;;;;;;4.95;1.17;;;;;;;;;;5017598;28;20084;-75
2022/06/21 14:34:00;;;;;;;6.85;1.20;;;;;;;;;;4999497;28;20038;-75
2022/06/21 14:36:29;;;;;;;3.17;1.10;;;;;;;;;;5016323;28;20033;-75
2022/06/21 14:39:37;;;;;;;3.95;1.20;;;;;;;;;;5017037;28;20026;-76
2022/06/21 14:42:17;;;;;;;6.03;1.33;;;;;;;;;;5017866;28;20048;-76
2022/06/21 14:45:11;;;;;;;5.85;1.00;;;;;;;;;;5018056;28;20030;-76
2022/06/21 14:47:50;;;;;;;3.00;1.20;;;;;;;;;;5013261;28;20099;-75
2022/06/21 14:51:01;;;;;;;4.50;1.23;;;;;;;;;;5017191;28;20475;-75
2022/06/21 14:53:45;;;;;;;3.40;1.02;;;;;;;;;;4968358;28;20033;-75
2022/06/21 14:56:30;;;;;;;5.15;1.30;;;;;;;;;;5016635;28;20022;-77
2022/06/21 14:59:25;;;;;;;1.90;1.00;;;;;;;;;;5017506;28;20018;-76
2022/06/21 15:02:00;;;;;;;2.20;1.05;;;;;;;;;;4999785;28;20072;-75
2022/06/21 15:04:49;;;;;;;1.75;0.93;;;;;;;;;;5016366;28;20113;-74
2022/06/21 15:07:45;;;;;;;3.55;1.20;;;;;;;;;;5015726;28;20026;-75
2022/06/21 15:10:18;;;;;;;5.43;1.30;;;;;;;;;;5015204;28;20144;-76
2022/06/21 15:12:58;;;;;;;3.40;1.20;;;;;;;;;;5015933;28;20033;-77
2022/06/21 15:15:26;;;;;;;3.08;1.50;;;;;;;;;;4998102;28;20052;-77
2022/06/21 15:18:14;;;;;;;1.48;0.80;;;;;;;;;;4998426;28;20036;-77
2022/06/21 15:21:15;;;;;;;6.88;1.30;;;;;;;;;;5015579;28;20111;-76
2022/06/21 15:24:02;;;;;;;3.30;1.20;;;;;;;;;;5015777;28;20026;-77
2022/06/21 15:26:52;;;;;;;3.72;1.20;;;;;;;;;;4998196;28;20076;-76
2022/06/21 15:29:26;;;;;;;4.93;1.05;;;;;;;;;;5015603;28;20476;-77
2022/06/21 15:32:07;;;;;;;3.90;1.17;;;;;;;;;;4998131;28;20029;-75
2022/06/21 15:34:35;;;;;;;3.60;1.25;;;;;;;;;;4998050;28;20030;-76
2022/06/21 15:37:29;;;;;;;2.17;1.20;;;;;;;;;;5015807;28;20041;-76
2022/06/21 15:40:04;;;;;;;3.60;1.40;;;;;;;;;;5016721;28;20037;-76
2022/06/21 15:42:40;;;;;;;2.65;1.13;;;;;;;;;;5016599;28;20029;-76
2022/06/21 15:45:28;;;;;;;4.63;1.30;;;;;;;;;;5016348;28;20034;-76
2022/06/21 15:51:25;;;;;;;4.63;1.40;;;;;;;;;;4975396;28;20066;-76
2022/06/21 15:54:00;;;;;;;2.25;1.00;;;;;;;;;;4994744;28;20112;-75
2022/06/21 15:56:34;;;;;;;3.88;1.15;;;;;;;;;;5015592;28;20018;-76
2022/06/21 15:59:17;;;;;;;3.22;1.00;;;;;;;;;;5015079;28;20096;-76
2022/06/21 16:02:14;;;;;;;5.60;1.20;;;;;;;;;;5015222;28;20364;-76
2022/06/21 16:04:39;;;;;;;2.92;1.20;;;;;;;;;;5001252;28;20033;-76
2022/06/21 16:07:07;;;;;;;2.83;1.27;;;;;;;;;;5014745;28;20045;-76
2022/06/21 16:09:40;;;;;;;2.03;1.10;;;;;;;;;;5014750;28;20052;-76
2022/06/21 16:12:14;;;;;;;2.08;1.20;;;;;;;;;;5014871;28;20018;-76
2022/06/21 16:14:48;;;;;;;6.82;1.20;;;;;;;;;;5014504;28;20038;-75
2022/06/21 16:17:20;;;;;;;3.15;1.08;;;;;;;;;;4997077;28;20507;-76
2022/06/21 16:19:51;;;;;;;3.00;1.10;;;;;;;;;;5014467;28;20029;-76
2022/06/21 16:22:18;;;;;;;5.80;1.10;;;;;;;;;;5014855;28;20025;-77
2022/06/21 16:25:10;;;;;;;6.28;1.80;;;;;;;;;;5014158;28;20030;-76
2022/06/21 16:27:46;;;;;;;1.30;1.00;;;;;;;;;;5014124;28;20022;-76
2022/06/21 16:30:16;;;;;;;1.95;0.90;;;;;;;;;;5014454;28;20028;-76
2022/06/21 16:33:13;;;;;;;3.90;1.20;;;;;;;;;;5013925;28;20071;-76
2022/06/21 16:35:59;;;;;;;5.97;1.38;;;;;;;;;;5014260;28;20021;-76
2022/06/21 16:38:41;;;;;;;3.85;1.10;;;;;;;;;;4996323;28;20038;-75
2022/06/21 16:44:23;;;;;;;1.70;1.02;;;;;;;;;;5014176;28;20426;-76
2022/06/21 16:46:55;;;;;;;3.22;0.90;;;;;;;;;;5013855;28;20025;-77
2022/06/21 16:49:42;;;;;;;4.30;1.20;;;;;;;;;;5013986;28;20076;-75
2022/06/21 16:52:26;;;;;;;2.17;1.10;;;;;;;;;;5013875;28;20032;-77
2022/06/21 16:55:04;;;;;;;2.08;1.20;;;;;;;;;;5013699;28;20024;-76
2022/06/21 16:57:36;;;;;;;3.90;1.10;;;;;;;;;;5013764;28;20116;-77
2022/06/21 17:00:06;;;;;;;3.58;1.25;;;;;;;;;;5014293;28;20471;-76
2022/06/21 17:02:32;;;;;;;1.67;1.15;;;;;;;;;;5013789;28;20030;-77
2022/06/21 17:05:08;;;;;;;4.90;2.30;;;;;;;;;;5013797;28;20109;-76
2022/06/21 17:07:33;;;;;;;4.45;1.33;;;;;;;;;;5013690;28;20514;-77
2022/06/21 17:10:03;;;;;;;2.90;1.13;;;;;;;;;;4996144;28;20025;-77
2022/06/21 17:12:40;;;;;;;3.65;1.50;;;;;;;;;;4996126;28;20026;-77
2022/06/21 17:15:12;;;;;;;6.25;1.33;;;;;;;;;;4995713;28;20029;-77
2022/06/21 17:17:56;;;;;;;3.50;1.10;;;;;;;;;;5013960;28;20034;-75
2022/06/21 17:20:33;;;;;;;2.85;1.15;;;;;;;;;;5013987;28;20465;-77